This is the latest recevied weather packets stored in our database for station/object KO4IEJ-15. If no packets are shown the sender has not sent any weather packets the latest 10 day(s).
| Time | Temp. | Humidity | Pressure | Rain* | Wind** | Luminosity | Snow |
|---|---|---|---|---|---|---|---|
| 1777282231 | 21.11° C | 93% | 1012.5 hPa | 0 mm | - | - | - |
| 1777275029 | 20.56° C | 94% | 1011.8 hPa | 0 mm | - | - | - |
| 1777272330 | 20.56° C | 94% | 1012 hPa | 0 mm | - | - | - |
| 1777266929 | 21.67° C | 94% | 1012.2 hPa | 0 mm | - | - | - |
| 1777263331 | 22.22° C | 92% | 1012.4 hPa | 0 mm | - | - | - |
| 1777246228 | 25.56° C | 78% | 1009.8 hPa | 0 mm | - | - | - |
| 1777242628 | 27.22° C | 71% | 1009.2 hPa | 0 mm | - | - | - |
| 1777238128 | 27.78° C | 71% | 1008.9 hPa | 0 mm | - | - | - |
| 1777237230 | 27.78° C | 69% | 1008.8 hPa | 0 mm | - | - | - |
| 1777236332 | 27.78° C | 72% | 1008.9 hPa | 0 mm | - | - | - |
| 1777234532 | 30.56° C | 58% | 1008.9 hPa | 0 mm | - | - | - |
| 1777228241 | 28.33° C | 67% | 1009.9 hPa | 0 mm | - | - | - |
| 1777225536 | 27.22° C | 69% | 1010.4 hPa | 0 mm | - | - | - |
| 1777216531 | 26.67° C | 74% | 1011.3 hPa | 0 mm | - | - | - |
| 1777213837 | 25.56° C | 77% | 1011.7 hPa | 0 mm | - | - | - |
| 1777210228 | 23.89° C | 84% | 1011.5 hPa | 0 mm | - | - | - |
| 1777208430 | 22.78° C | 87% | 1011.6 hPa | 0 mm | - | - | - |
| 1777206630 | 22.22° C | 90% | 1011.6 hPa | 0 mm | - | - | - |
| 1777198536 | 19.44° C | 96% | 1010.1 hPa | 0 mm | - | - | - |
| 1777194935 | 19.44° C | 94% | 1010 hPa | 0 mm | - | - | - |
| 1777193131 | 20° C | 94% | 1010.1 hPa | 0 mm | - | - | - |
| 1777190430 | 20° C | 92% | 1009.9 hPa | 0 mm | - | - | - |
| 1777184131 | 21.11° C | 89% | 1010.3 hPa | 0 mm | - | - | - |
| 1777180531 | 21.11° C | 88% | 1010.7 hPa | 0 mm | - | - | - |
| 1777176944 | 21.67° C | 87% | 1010.9 hPa | 0 mm | - | - | - |
* Rain latest hour (hover to see other rain measurements)
** Current wind speed in m/s (hover to see current wind gust speed)